createdAt,value
2022-10-02T00:01:56.859Z,4.17
2022-10-02T00:04:33.999Z,3.80
2022-10-02T00:07:07.927Z,4.03
2022-10-02T00:09:43.710Z,4.40
2022-10-02T00:12:17.385Z,3.03
2022-10-02T00:14:49.263Z,3.33
2022-10-02T00:17:25.676Z,3.80
2022-10-02T00:19:56.647Z,3.70
2022-10-02T00:22:59.553Z,4.20
2022-10-02T00:25:39.550Z,3.70
2022-10-02T00:28:41.500Z,3.93
2022-10-02T00:31:19.481Z,3.50
2022-10-02T00:34:33.186Z,3.37
2022-10-02T00:37:37.053Z,2.87
2022-10-02T00:40:37.949Z,3.40
2022-10-02T00:43:23.658Z,3.90
2022-10-02T00:46:12.198Z,3.30
2022-10-02T00:49:04.466Z,3.47
2022-10-02T00:52:05.573Z,4.73
2022-10-02T00:54:59.634Z,3.50
2022-10-02T00:57:55.193Z,4.30
2022-10-02T01:00:25.633Z,3.10
2022-10-02T01:03:11.917Z,3.27
2022-10-02T01:05:41.860Z,3.63
2022-10-02T01:08:09.067Z,3.80
2022-10-02T01:10:38.345Z,2.90
2022-10-02T01:13:08.175Z,4.30
2022-10-02T01:15:46.942Z,3.27
2022-10-02T01:18:14.871Z,2.87
2022-10-02T01:20:46.943Z,3.23
2022-10-02T01:23:42.234Z,3.10
2022-10-02T01:26:11.370Z,3.63
2022-10-02T01:28:38.330Z,3.10
2022-10-02T01:31:10.320Z,2.80
2022-10-02T01:33:41.570Z,3.07
2022-10-02T01:36:12.823Z,4.20
2022-10-02T01:38:41.972Z,3.40
2022-10-02T01:41:14.945Z,2.70
2022-10-02T01:43:56.481Z,2.80
2022-10-02T01:47:09.047Z,3.60
2022-10-02T01:50:32.900Z,3.50
2022-10-02T01:53:15.063Z,7.23
2022-10-02T01:56:17.280Z,3.10
2022-10-02T01:59:01.501Z,3.30
2022-10-02T02:01:36.585Z,3.60
2022-10-02T02:04:15.319Z,4.37
2022-10-02T02:07:03.305Z,2.50
2022-10-02T02:09:56.945Z,2.97
2022-10-02T02:12:42.047Z,3.30
2022-10-02T02:15:17.763Z,3.97
2022-10-02T02:17:53.364Z,2.73
2022-10-02T02:20:31.834Z,3.23
2022-10-02T02:23:09.135Z,2.63
2022-10-02T02:25:41.222Z,3.23
2022-10-02T02:28:12.439Z,2.90
2022-10-02T02:30:44.014Z,2.50
2022-10-02T02:33:24.242Z,3.20
2022-10-02T02:35:59.183Z,2.70
2022-10-02T02:38:36.098Z,2.40
2022-10-02T02:41:15.584Z,2.63
2022-10-02T02:44:30.596Z,2.97
2022-10-02T02:47:15.724Z,2.73
2022-10-02T02:50:18.351Z,2.60
2022-10-02T02:53:02.352Z,3.00
2022-10-02T02:55:45.151Z,3.00
2022-10-02T02:58:34.232Z,3.40
2022-10-02T03:01:01.148Z,2.83
2022-10-02T03:03:28.033Z,1.80
2022-10-02T03:06:22.483Z,2.87
2022-10-02T03:08:54.914Z,2.83
2022-10-02T03:11:45.753Z,2.50
2022-10-02T03:14:42.693Z,3.70
2022-10-02T03:17:31.165Z,2.20
2022-10-02T03:20:17.497Z,2.10
2022-10-02T03:23:16.053Z,2.53
2022-10-02T03:26:03.478Z,2.33
2022-10-02T03:28:56.015Z,2.37
2022-10-02T03:31:27.837Z,2.70
2022-10-02T03:33:57.618Z,3.33
2022-10-02T03:36:25.351Z,3.37
2022-10-02T03:41:46.777Z,3.30
2022-10-02T03:44:15.820Z,2.20
2022-10-02T03:46:45.023Z,3.20
2022-10-02T03:49:11.901Z,3.20
2022-10-02T03:51:41.278Z,3.43
2022-10-02T03:54:20.921Z,3.87
2022-10-02T03:56:58.831Z,3.60
2022-10-02T03:59:43.232Z,3.70
2022-10-02T04:02:26.353Z,3.57
2022-10-02T04:05:42.736Z,2.90
2022-10-02T04:08:19.180Z,3.50
2022-10-02T04:11:01.921Z,3.90
2022-10-02T04:14:18.690Z,3.90
2022-10-02T04:17:03.986Z,3.77
2022-10-02T04:19:54.299Z,3.63
2022-10-02T04:22:43.318Z,4.20
2022-10-02T04:25:19.861Z,3.73
2022-10-02T04:28:15.326Z,3.47
2022-10-02T04:30:44.753Z,4.07
2022-10-02T04:33:18.604Z,3.40
2022-10-02T04:36:18.989Z,3.67
2022-10-02T04:38:57.885Z,4.10
2022-10-02T04:41:44.785Z,3.90
2022-10-02T04:44:44.939Z,3.50
2022-10-02T04:47:43.187Z,3.67
2022-10-02T04:50:21.720Z,3.57
2022-10-02T04:53:00.117Z,4.00
2022-10-02T04:55:40.836Z,3.77
2022-10-02T04:58:54.748Z,3.67
2022-10-02T05:01:41.195Z,3.77
2022-10-02T05:04:31.974Z,4.80
2022-10-02T05:07:06.405Z,5.40
2022-10-02T05:09:47.831Z,5.40
2022-10-02T05:12:45.660Z,5.87
2022-10-02T05:15:41.281Z,5.57
2022-10-02T05:18:57.918Z,5.87
2022-10-02T05:21:42.062Z,6.90
2022-10-02T05:25:01.137Z,6.50
2022-10-02T05:27:39.731Z,6.60
2022-10-02T05:30:09.731Z,7.00
2022-10-02T05:33:28.301Z,7.57
2022-10-02T05:36:32.068Z,7.97
2022-10-02T05:39:11.268Z,6.97
2022-10-02T05:42:06.258Z,7.17
2022-10-02T05:44:49.254Z,7.30
2022-10-02T05:47:31.601Z,6.77
2022-10-02T05:50:12.637Z,6.70
2022-10-02T05:53:00.928Z,7.30
2022-10-02T05:55:55.476Z,8.53
2022-10-02T05:58:38.764Z,7.80
2022-10-02T06:01:38.036Z,6.77
2022-10-02T06:04:41.047Z,6.40
2022-10-02T06:07:14.837Z,7.33
2022-10-02T06:10:03.672Z,6.90
2022-10-02T06:12:48.058Z,7.30
2022-10-02T06:15:55.406Z,7.67
2022-10-02T06:18:31.869Z,7.03
2022-10-02T06:21:21.455Z,6.23
2022-10-02T06:23:55.271Z,5.40
2022-10-02T06:26:46.141Z,5.43
2022-10-02T06:29:30.677Z,4.73
2022-10-02T06:32:16.284Z,4.87
2022-10-02T06:34:47.802Z,6.30
2022-10-02T06:37:46.185Z,4.73
2022-10-02T06:41:16.282Z,5.40
2022-10-02T06:44:19.640Z,4.93
2022-10-02T06:47:14.706Z,4.50
2022-10-02T06:49:56.767Z,4.30
2022-10-02T06:52:45.027Z,3.90
2022-10-02T06:55:42.511Z,4.23
2022-10-02T06:58:34.208Z,4.70
2022-10-02T07:01:19.288Z,4.17
2022-10-02T07:04:13.194Z,3.90
2022-10-02T07:06:58.932Z,3.83
2022-10-02T07:09:52.576Z,3.30
2022-10-02T07:12:40.322Z,4.00
2022-10-02T07:15:28.877Z,4.20
2022-10-02T07:18:31.905Z,4.00
2022-10-02T07:21:24.195Z,4.70
2022-10-02T07:24:16.660Z,4.73
2022-10-02T07:27:10.241Z,3.80
2022-10-02T07:29:43.825Z,4.73
2022-10-02T07:32:37.812Z,4.57
2022-10-02T07:35:42.367Z,4.87
2022-10-02T07:38:43.116Z,4.60
2022-10-02T07:41:36.641Z,4.40
2022-10-02T07:44:41.130Z,5.30
2022-10-02T07:47:39.932Z,4.40
2022-10-02T07:51:33.143Z,4.90
2022-10-02T07:54:36.282Z,3.27
2022-10-02T07:57:20.255Z,3.43
2022-10-02T07:59:48.328Z,3.33
2022-10-02T08:02:48.716Z,4.13
2022-10-02T08:05:33.542Z,3.00
2022-10-02T08:08:08.808Z,3.50
2022-10-02T08:10:44.466Z,2.43
2022-10-02T08:13:23.673Z,2.80
2022-10-02T08:15:55.499Z,2.80
2022-10-02T08:18:35.879Z,3.70
2022-10-02T08:21:11.561Z,2.57
2022-10-02T08:24:00.190Z,2.93
2022-10-02T08:26:52.421Z,3.20
2022-10-02T08:29:40.985Z,3.30
2022-10-02T08:32:11.897Z,4.17
2022-10-02T08:34:40.845Z,3.20
2022-10-02T08:37:29.338Z,3.80
2022-10-02T08:40:11.206Z,3.83
2022-10-02T08:43:31.679Z,3.90
2022-10-02T08:47:09.059Z,4.67
2022-10-02T08:50:32.028Z,4.37
2022-10-02T08:53:38.278Z,4.70
2022-10-02T08:56:26.401Z,4.50
2022-10-02T08:59:20.638Z,5.03
2022-10-02T09:02:27.602Z,5.57
2022-10-02T09:06:03.374Z,4.10
2022-10-02T09:09:21.646Z,4.70
2022-10-02T09:12:40.077Z,3.80
2022-10-02T09:15:32.218Z,3.87
2022-10-02T09:18:25.011Z,3.70
2022-10-02T09:21:30.863Z,3.80
2022-10-02T09:24:29.973Z,3.80
2022-10-02T09:27:37.552Z,4.07
2022-10-02T09:30:47.857Z,4.00
2022-10-02T09:33:39.353Z,4.20
2022-10-02T09:36:51.864Z,3.40
2022-10-02T09:39:45.195Z,3.90
2022-10-02T09:42:34.853Z,4.03
2022-10-02T09:45:36.525Z,4.40
2022-10-02T09:49:02.464Z,3.70
2022-10-02T09:51:53.580Z,4.13
2022-10-02T09:55:29.849Z,4.23
2022-10-02T09:58:34.750Z,3.83
2022-10-02T10:01:30.141Z,4.90
2022-10-02T10:04:38.024Z,1.80
2022-10-02T10:07:26.378Z,1.37
2022-10-02T10:10:25.273Z,2.10
2022-10-02T10:13:08.722Z,1.47
2022-10-02T10:15:46.626Z,1.77
2022-10-02T10:18:27.880Z,1.77
2022-10-02T10:21:30.274Z,2.20
2022-10-02T10:24:43.516Z,1.77
2022-10-02T10:27:38.687Z,1.47
2022-10-02T10:30:40.981Z,2.40
2022-10-02T10:33:13.674Z,2.07
2022-10-02T10:36:35.909Z,2.20
2022-10-02T10:39:17.450Z,2.10
2022-10-02T10:41:59.890Z,1.90
2022-10-02T10:45:05.425Z,2.20
2022-10-02T10:48:03.932Z,1.63
2022-10-02T10:50:52.262Z,1.17
2022-10-02T10:53:33.932Z,2.70
2022-10-02T10:56:30.010Z,2.50
2022-10-02T10:59:16.723Z,2.23
2022-10-02T11:01:57.304Z,2.83
2022-10-02T11:05:01.213Z,2.60
2022-10-02T11:08:13.486Z,3.00
2022-10-02T11:11:01.416Z,3.30
2022-10-02T11:14:08.616Z,5.00
2022-10-02T11:17:20.293Z,3.77
2022-10-02T11:20:17.878Z,2.77
2022-10-02T11:23:22.284Z,3.07
2022-10-02T11:26:27.831Z,1.90
2022-10-02T11:29:44.122Z,2.13
2022-10-02T11:32:46.206Z,2.33
2022-10-02T11:35:48.306Z,1.53
2022-10-02T11:38:45.463Z,2.47
2022-10-02T11:41:22.740Z,2.37
2022-10-02T11:44:30.323Z,2.33
2022-10-02T11:47:20.014Z,1.73
2022-10-02T11:50:29.134Z,1.90
2022-10-02T11:53:35.936Z,1.60
2022-10-02T11:56:47.372Z,2.40
2022-10-02T11:59:32.208Z,3.03
2022-10-02T12:02:08.613Z,2.70
2022-10-02T12:05:18.618Z,2.13
2022-10-02T12:08:34.394Z,2.27
2022-10-02T12:11:15.811Z,1.80
2022-10-02T12:14:30.925Z,2.70
2022-10-02T12:17:17.233Z,2.40
2022-10-02T12:20:39.242Z,2.20
2022-10-02T12:23:46.836Z,1.93
2022-10-02T12:26:56.679Z,2.13
2022-10-02T12:30:06.402Z,2.60
2022-10-02T12:33:17.026Z,2.90
2022-10-02T12:35:49.719Z,4.67
2022-10-02T12:38:52.283Z,2.73
2022-10-02T12:42:04.950Z,2.53
2022-10-02T12:45:16.414Z,2.57
2022-10-02T12:47:55.237Z,3.20
2022-10-02T12:50:43.588Z,2.90
2022-10-02T12:53:56.740Z,2.53
2022-10-02T12:56:51.018Z,2.60
2022-10-02T12:59:42.620Z,2.90
2022-10-02T13:02:59.651Z,2.40
2022-10-02T13:06:14.706Z,3.17
2022-10-02T13:09:05.002Z,2.33
2022-10-02T13:11:56.126Z,6.70
2022-10-02T13:15:02.752Z,2.03
2022-10-02T13:17:32.578Z,3.20
2022-10-02T13:20:37.934Z,3.03
2022-10-02T13:23:33.258Z,2.30
2022-10-02T13:26:22.294Z,2.63
2022-10-02T13:29:26.242Z,1.80
2022-10-02T13:32:20.128Z,1.90
2022-10-02T13:35:30.535Z,1.90
2022-10-02T13:38:09.322Z,1.47
2022-10-02T13:41:26.489Z,1.50
2022-10-02T13:44:26.150Z,2.33
2022-10-02T13:47:11.160Z,1.57
2022-10-02T13:50:17.371Z,1.80
2022-10-02T13:53:28.443Z,1.90
2022-10-02T13:56:18.532Z,2.13
2022-10-02T13:59:07.211Z,2.23
2022-10-02T14:01:59.546Z,1.90
2022-10-02T14:04:57.333Z,2.20
2022-10-02T14:07:59.537Z,2.73
2022-10-02T14:10:57.268Z,2.50
2022-10-02T14:13:45.481Z,2.47
2022-10-02T14:16:30.546Z,2.60
2022-10-02T14:19:06.196Z,2.77
2022-10-02T14:22:12.598Z,3.10
2022-10-02T14:25:04.382Z,2.87
2022-10-02T14:28:10.029Z,3.10
2022-10-02T14:31:15.104Z,2.60
2022-10-02T14:34:19.175Z,3.00
2022-10-02T14:36:46.578Z,3.00
2022-10-02T14:39:29.964Z,2.93
2022-10-02T14:42:32.322Z,3.07
2022-10-02T14:45:00.491Z,2.80
2022-10-02T14:47:55.154Z,3.53
2022-10-02T14:51:00.687Z,3.30
2022-10-02T14:54:26.976Z,2.33
2022-10-02T14:57:04.251Z,3.13
2022-10-02T15:00:10.293Z,3.33
2022-10-02T15:02:51.916Z,3.83
2022-10-02T15:05:38.008Z,3.03
2022-10-02T15:08:29.979Z,2.50
2022-10-02T15:11:03.227Z,3.67
2022-10-02T15:14:17.663Z,3.60
2022-10-02T15:17:48.278Z,3.70
2022-10-02T15:20:30.710Z,2.80
2022-10-02T15:23:12.635Z,3.60
2022-10-02T15:26:34.312Z,3.57
2022-10-02T15:29:22.740Z,2.97
2022-10-02T15:32:05.459Z,3.37
2022-10-02T15:35:19.505Z,3.47
2022-10-02T15:38:11.747Z,3.20
2022-10-02T15:41:07.797Z,2.97
2022-10-02T15:44:06.703Z,3.90
2022-10-02T15:46:51.555Z,3.83
2022-10-02T15:49:39.286Z,3.03
2022-10-02T15:52:33.467Z,2.50
2022-10-02T15:55:40.574Z,3.53
2022-10-02T15:58:54.464Z,3.00
2022-10-02T16:01:44.198Z,3.87
2022-10-02T16:04:39.689Z,2.93
2022-10-02T16:07:37.029Z,3.90
2022-10-02T16:10:25.000Z,3.50
2022-10-02T16:13:31.830Z,2.97
2022-10-02T16:16:20.499Z,3.80
2022-10-02T16:19:03.247Z,3.83
2022-10-02T16:22:06.838Z,3.97
2022-10-02T16:24:51.755Z,3.90
2022-10-02T16:28:04.043Z,3.73
2022-10-02T16:31:06.486Z,6.57
2022-10-02T16:34:04.836Z,3.70
2022-10-02T16:36:52.658Z,4.30
2022-10-02T16:39:48.116Z,3.70
2022-10-02T16:42:57.064Z,3.23
2022-10-02T16:45:41.322Z,4.27
2022-10-02T16:48:18.565Z,3.77
2022-10-02T16:51:15.771Z,4.27
2022-10-02T16:54:10.945Z,4.90
2022-10-02T16:56:55.043Z,4.67
2022-10-02T16:59:40.668Z,4.47
2022-10-02T17:02:33.195Z,4.57
2022-10-02T17:05:20.682Z,4.83
2022-10-02T17:08:13.979Z,3.93
2022-10-02T17:11:25.306Z,4.63
2022-10-02T17:14:43.142Z,4.13
2022-10-02T17:17:29.195Z,3.80
2022-10-02T17:20:19.143Z,5.07
2022-10-02T17:23:13.904Z,4.33
2022-10-02T17:26:12.403Z,5.30
2022-10-02T17:29:02.045Z,4.23
2022-10-02T17:32:06.154Z,4.73
2022-10-02T17:34:56.530Z,4.23
2022-10-02T17:37:57.175Z,4.33
2022-10-02T17:40:51.699Z,4.10
2022-10-02T17:43:54.062Z,5.13
2022-10-02T17:46:55.432Z,4.07
2022-10-02T17:49:53.125Z,4.10
2022-10-02T17:53:00.430Z,4.30
2022-10-02T17:56:19.342Z,3.87
2022-10-02T17:59:26.131Z,4.57
2022-10-02T18:02:22.124Z,4.40
2022-10-02T18:04:59.201Z,4.27
2022-10-02T18:08:04.114Z,4.60
2022-10-02T18:11:08.788Z,4.83
2022-10-02T18:13:59.795Z,4.90
2022-10-02T18:16:56.445Z,5.30
2022-10-02T18:20:05.525Z,4.03
2022-10-02T18:23:04.974Z,4.87
2022-10-02T18:25:44.608Z,3.87
2022-10-02T18:28:54.190Z,4.20
2022-10-02T18:31:56.602Z,4.27
2022-10-02T18:34:43.550Z,4.40
2022-10-02T18:37:20.744Z,5.70
2022-10-02T18:40:30.581Z,6.33
2022-10-02T18:43:32.500Z,4.30
2022-10-02T18:46:12.826Z,4.80
2022-10-02T18:48:58.971Z,4.83
2022-10-02T18:51:28.445Z,5.03
2022-10-02T18:54:51.937Z,4.57
2022-10-02T18:58:21.426Z,4.50
2022-10-02T19:01:06.113Z,5.13
2022-10-02T19:04:00.972Z,5.10
2022-10-02T19:06:50.069Z,5.03
2022-10-02T19:09:24.583Z,4.43
2022-10-02T19:12:18.615Z,4.50
2022-10-02T19:14:49.029Z,5.53
2022-10-02T19:17:26.830Z,4.67
2022-10-02T19:19:56.155Z,5.30
2022-10-02T19:22:34.297Z,5.03
2022-10-02T19:25:16.044Z,4.30
2022-10-02T19:27:54.478Z,4.70
2022-10-02T19:30:26.762Z,5.53
2022-10-02T19:33:04.733Z,4.70
2022-10-02T19:35:42.436Z,6.03
2022-10-02T19:38:12.626Z,4.67
2022-10-02T19:40:40.406Z,4.70
2022-10-02T19:43:24.683Z,5.40
2022-10-02T19:45:56.871Z,5.37
2022-10-02T19:48:29.817Z,4.10
2022-10-02T19:51:03.555Z,5.40
2022-10-02T19:53:48.388Z,4.03
2022-10-02T19:56:26.349Z,5.53
2022-10-02T19:59:17.902Z,5.03
2022-10-02T20:01:53.867Z,5.80
2022-10-02T20:04:26.770Z,5.20
2022-10-02T20:06:59.265Z,4.23
2022-10-02T20:09:43.409Z,4.90
2022-10-02T20:12:38.127Z,4.50
2022-10-02T20:15:43.048Z,4.43
2022-10-02T20:18:14.636Z,5.30
2022-10-02T20:20:44.549Z,5.30
2022-10-02T20:23:25.016Z,4.03
2022-10-02T20:25:58.579Z,4.10
2022-10-02T20:28:41.191Z,4.60
2022-10-02T20:31:21.037Z,3.87
2022-10-02T20:33:59.660Z,4.00
2022-10-02T20:36:31.968Z,4.40
2022-10-02T20:39:12.287Z,4.23
2022-10-02T20:42:09.619Z,3.23
2022-10-02T20:44:37.661Z,3.90
2022-10-02T20:47:50.179Z,4.50
2022-10-02T20:50:51.605Z,4.50
2022-10-02T20:53:44.864Z,4.20
2022-10-02T20:56:41.103Z,4.80
2022-10-02T20:59:39.794Z,3.47
2022-10-02T21:03:02.439Z,4.10
2022-10-02T21:06:03.210Z,4.00
2022-10-02T21:08:57.252Z,4.67
2022-10-02T21:11:31.188Z,4.73
2022-10-02T21:14:16.131Z,3.40
2022-10-02T21:17:14.252Z,4.20
2022-10-02T21:20:14.105Z,3.50
2022-10-02T21:23:21.053Z,3.90
2022-10-02T21:26:39.230Z,4.00
2022-10-02T21:29:27.237Z,4.67
2022-10-02T21:32:25.546Z,4.13
2022-10-02T21:35:18.021Z,4.13
2022-10-02T21:38:34.427Z,3.60
2022-10-02T21:41:10.676Z,4.07
2022-10-02T21:44:18.314Z,4.23
2022-10-02T21:47:18.823Z,5.13
2022-10-02T21:50:03.689Z,4.37
2022-10-02T21:53:07.633Z,4.27
2022-10-02T21:56:20.292Z,4.90
2022-10-02T21:59:11.975Z,4.30
2022-10-02T22:02:08.840Z,4.97
2022-10-02T22:05:09.356Z,4.53
2022-10-02T22:08:18.219Z,3.70
2022-10-02T22:11:12.129Z,3.50
2022-10-02T22:13:46.411Z,4.10
2022-10-02T22:16:34.630Z,3.43
2022-10-02T22:19:35.572Z,3.60
2022-10-02T22:22:35.400Z,3.63
2022-10-02T22:25:31.941Z,4.70
2022-10-02T22:28:18.838Z,3.87
2022-10-02T22:30:54.766Z,3.90
2022-10-02T22:34:05.813Z,3.40
2022-10-02T22:37:26.320Z,5.40
2022-10-02T22:40:03.802Z,3.67
2022-10-02T22:42:46.658Z,3.10
2022-10-02T22:45:45.667Z,3.80
2022-10-02T22:48:36.034Z,3.83
2022-10-02T22:51:18.489Z,3.87
2022-10-02T22:54:05.176Z,3.73
2022-10-02T22:56:49.188Z,3.37
2022-10-02T22:59:49.907Z,3.93
2022-10-02T23:02:32.936Z,3.10
2022-10-02T23:05:32.998Z,4.00
2022-10-02T23:08:36.657Z,4.37
2022-10-02T23:11:31.198Z,4.63
2022-10-02T23:14:26.933Z,3.57
2022-10-02T23:17:10.788Z,3.60
2022-10-02T23:19:55.846Z,4.37
2022-10-02T23:22:28.796Z,3.23
2022-10-02T23:25:31.428Z,3.57
2022-10-02T23:28:09.366Z,4.73
2022-10-02T23:31:06.327Z,3.80
2022-10-02T23:34:35.284Z,3.23
2022-10-02T23:37:25.006Z,2.80
2022-10-02T23:40:48.069Z,2.97
2022-10-02T23:43:37.137Z,3.60
2022-10-02T23:46:15.020Z,4.50
2022-10-02T23:48:43.048Z,3.63
2022-10-02T23:51:50.704Z,4.13
2022-10-02T23:54:39.110Z,2.50
2022-10-02T23:57:44.286Z,3.90
